sensor_id;sensor_type;location;lat;lon;timestamp;pressure;altitude;pressure_sealevel;temperature;humidity
20027;BME280;10174;42.688;23.344;2023-09-08T00:00:58;95832.97;;;19.97;79.16
20027;BME280;10174;42.688;23.344;2023-09-08T00:03:24;95826.53;;;19.93;79.49
20027;BME280;10174;42.688;23.344;2023-09-08T00:05:49;95787.47;;;19.61;79.57
20027;BME280;10174;42.688;23.344;2023-09-08T00:08:15;95852.19;;;19.92;80.81
20027;BME280;10174;42.688;23.344;2023-09-08T00:10:41;95848.34;;;19.93;81.12
20027;BME280;10174;42.688;23.344;2023-09-08T00:13:06;95839.66;;;19.91;79.55
20027;BME280;10174;42.688;23.344;2023-09-08T00:15:33;95810.88;;;19.62;80.94
20027;BME280;10174;42.688;23.344;2023-09-08T00:18:00;95818.94;;;19.67;81.67
20027;BME280;10174;42.688;23.344;2023-09-08T00:20:25;95733.09;;;19.11;80.91
20027;BME280;10174;42.688;23.344;2023-09-08T00:22:51;95845.56;;;19.70;81.19
20027;BME280;10174;42.688;23.344;2023-09-08T00:25:16;95815.97;;;19.55;81.38
20027;BME280;10174;42.688;23.344;2023-09-08T00:27:41;95829.28;;;19.56;81.41
20027;BME280;10174;42.688;23.344;2023-09-08T00:30:07;95828.72;;;19.46;81.19
20027;BME280;10174;42.688;23.344;2023-09-08T00:32:33;95822.25;;;19.42;81.51
20027;BME280;10174;42.688;23.344;2023-09-08T00:34:58;95828.56;;;19.51;80.44
20027;BME280;10174;42.688;23.344;2023-09-08T00:37:23;95791.03;;;19.25;80.91
20027;BME280;10174;42.688;23.344;2023-09-08T00:39:49;95831.38;;;19.60;79.60
20027;BME280;10174;42.688;23.344;2023-09-08T00:42:14;95832.19;;;19.60;77.30
20027;BME280;10174;42.688;23.344;2023-09-08T00:44:40;95801.47;;;19.46;76.99
20027;BME280;10174;42.688;23.344;2023-09-08T00:47:05;95811.44;;;19.50;75.97
20027;BME280;10174;42.688;23.344;2023-09-08T00:49:31;95819.97;;;19.57;75.41
20027;BME280;10174;42.688;23.344;2023-09-08T00:51:56;95816.56;;;19.52;74.11
20027;BME280;10174;42.688;23.344;2023-09-08T00:54:22;95802.44;;;19.50;74.84
20027;BME280;10174;42.688;23.344;2023-09-08T00:56:48;95825.41;;;19.57;75.38
20027;BME280;10174;42.688;23.344;2023-09-08T00:59:19;95821.59;;;19.58;74.82
20027;BME280;10174;42.688;23.344;2023-09-08T01:01:44;95819.00;;;19.53;73.81
20027;BME280;10174;42.688;23.344;2023-09-08T01:04:09;95725.75;;;18.97;72.60
20027;BME280;10174;42.688;23.344;2023-09-08T01:06:35;95828.84;;;19.63;73.51
20027;BME280;10174;42.688;23.344;2023-09-08T01:09:01;95834.91;;;19.60;72.46
20027;BME280;10174;42.688;23.344;2023-09-08T01:11:28;95829.75;;;19.58;74.35
20027;BME280;10174;42.688;23.344;2023-09-08T01:13:53;95838.38;;;19.52;76.79
20027;BME280;10174;42.688;23.344;2023-09-08T01:16:18;95823.25;;;19.46;77.72
20027;BME280;10174;42.688;23.344;2023-09-08T01:18:46;95758.91;;;18.99;78.53
20027;BME280;10174;42.688;23.344;2023-09-08T01:21:37;95823.34;;;19.40;78.72
20027;BME280;10174;42.688;23.344;2023-09-08T01:26:56;95806.91;;;19.46;76.44
20027;BME280;10174;42.688;23.344;2023-09-08T01:29:21;95817.69;;;19.51;76.57
20027;BME280;10174;42.688;23.344;2023-09-08T01:31:50;95771.47;;;19.23;76.81
20027;BME280;10174;42.688;23.344;2023-09-08T01:34:16;95823.03;;;19.42;77.06
20027;BME280;10174;42.688;23.344;2023-09-08T01:36:42;95790.91;;;19.30;77.58
20027;BME280;10174;42.688;23.344;2023-09-08T01:39:07;95813.06;;;19.37;77.06
20027;BME280;10174;42.688;23.344;2023-09-08T01:41:33;95808.75;;;19.36;77.83
20027;BME280;10174;42.688;23.344;2023-09-08T01:43:59;95806.66;;;19.33;77.35
20027;BME280;10174;42.688;23.344;2023-09-08T01:46:24;95792.06;;;19.15;77.78
20027;BME280;10174;42.688;23.344;2023-09-08T01:48:50;95704.22;;;18.59;77.39
20027;BME280;10174;42.688;23.344;2023-09-08T01:51:15;95817.88;;;19.18;77.70
20027;BME280;10174;42.688;23.344;2023-09-08T01:53:40;95826.06;;;19.18;77.92
20027;BME280;10174;42.688;23.344;2023-09-08T01:56:06;95809.81;;;19.13;78.89
20027;BME280;10174;42.688;23.344;2023-09-08T01:58:31;95815.88;;;19.10;78.78
20027;BME280;10174;42.688;23.344;2023-09-08T02:00:58;95791.28;;;18.87;79.24
20027;BME280;10174;42.688;23.344;2023-09-08T02:03:30;95781.53;;;18.86;79.76
20027;BME280;10174;42.688;23.344;2023-09-08T02:05:56;95682.50;;;18.18;79.48
20027;BME280;10174;42.688;23.344;2023-09-08T02:08:21;95715.31;;;18.35;80.67
20027;BME280;10174;42.688;23.344;2023-09-08T02:10:46;95775.56;;;18.70;80.88
20027;BME280;10174;42.688;23.344;2023-09-08T02:13:12;95803.38;;;18.81;80.56
20027;BME280;10174;42.688;23.344;2023-09-08T02:15:37;95793.09;;;18.78;81.15
20027;BME280;10174;42.688;23.344;2023-09-08T02:18:03;95810.53;;;18.77;81.53
20027;BME280;10174;42.688;23.344;2023-09-08T02:20:28;95803.00;;;18.74;81.83
20027;BME280;10174;42.688;23.344;2023-09-08T02:22:54;95771.34;;;18.50;82.00
20027;BME280;10174;42.688;23.344;2023-09-08T02:25:20;95802.06;;;18.64;82.49
20027;BME280;10174;42.688;23.344;2023-09-08T02:27:48;95793.41;;;18.62;83.21
20027;BME280;10174;42.688;23.344;2023-09-08T02:30:13;95764.28;;;18.49;82.73
20027;BME280;10174;42.688;23.344;2023-09-08T02:32:38;95715.94;;;18.18;83.09
20027;BME280;10174;42.688;23.344;2023-09-08T02:35:08;95771.84;;;18.52;83.06
20027;BME280;10174;42.688;23.344;2023-09-08T02:37:33;95775.56;;;18.56;83.23
20027;BME280;10174;42.688;23.344;2023-09-08T02:39:58;95793.41;;;18.62;83.38
20027;BME280;10174;42.688;23.344;2023-09-08T02:42:24;95753.63;;;18.39;83.63
20027;BME280;10174;42.688;23.344;2023-09-08T02:44:49;95788.06;;;18.57;83.78
20027;BME280;10174;42.688;23.344;2023-09-08T02:47:14;95686.09;;;17.85;84.25
20027;BME280;10174;42.688;23.344;2023-09-08T02:49:40;95793.69;;;18.47;85.03
20027;BME280;10174;42.688;23.344;2023-09-08T02:52:05;95789.38;;;18.46;85.08
20027;BME280;10174;42.688;23.344;2023-09-08T02:54:30;95778.19;;;18.33;85.54
20027;BME280;10174;42.688;23.344;2023-09-08T02:56:56;95790.88;;;18.38;85.82
20027;BME280;10174;42.688;23.344;2023-09-08T02:59:21;95759.34;;;18.23;85.73
20027;BME280;10174;42.688;23.344;2023-09-08T03:01:46;95762.09;;;18.23;86.53
20027;BME280;10174;42.688;23.344;2023-09-08T03:04:12;95773.56;;;18.20;87.21
20027;BME280;10174;42.688;23.344;2023-09-08T03:06:37;95775.16;;;18.21;86.91
20027;BME280;10174;42.688;23.344;2023-09-08T03:09:03;95782.50;;;18.21;87.97
20027;BME280;10174;42.688;23.344;2023-09-08T03:11:28;95776.84;;;18.17;87.86
20027;BME280;10174;42.688;23.344;2023-09-08T03:13:54;95772.13;;;18.09;88.82
20027;BME280;10174;42.688;23.344;2023-09-08T03:16:20;95773.94;;;18.13;89.12
20027;BME280;10174;42.688;23.344;2023-09-08T03:18:45;95763.53;;;18.02;89.05
20027;BME280;10174;42.688;23.344;2023-09-08T03:21:13;95700.72;;;17.56;89.09
20027;BME280;10174;42.688;23.344;2023-09-08T03:23:42;95763.78;;;17.86;89.52
20027;BME280;10174;42.688;23.344;2023-09-08T03:26:09;95784.28;;;17.97;90.04
20027;BME280;10174;42.688;23.344;2023-09-08T03:28:35;95774.00;;;17.94;89.97
20027;BME280;10174;42.688;23.344;2023-09-08T03:31:02;95774.34;;;17.88;90.59
20027;BME280;10174;42.688;23.344;2023-09-08T03:33:28;95770.41;;;17.80;90.32
20027;BME280;10174;42.688;23.344;2023-09-08T03:35:53;95754.50;;;17.73;90.65
20027;BME280;10174;42.688;23.344;2023-09-08T03:38:18;95770.84;;;17.87;89.34
20027;BME280;10174;42.688;23.344;2023-09-08T03:40:44;95694.63;;;17.32;90.09
20027;BME280;10174;42.688;23.344;2023-09-08T03:43:09;95775.03;;;17.79;90.77
20027;BME280;10174;42.688;23.344;2023-09-08T03:45:35;95764.63;;;17.68;91.52
20027;BME280;10174;42.688;23.344;2023-09-08T03:48:00;95777.03;;;17.74;90.95
20027;BME280;10174;42.688;23.344;2023-09-08T03:50:26;95671.41;;;17.06;91.23
20027;BME280;10174;42.688;23.344;2023-09-08T03:52:51;95773.81;;;17.72;92.46
20027;BME280;10174;42.688;23.344;2023-09-08T03:55:16;95676.09;;;17.01;92.83
20027;BME280;10174;42.688;23.344;2023-09-08T03:57:42;95778.81;;;17.65;93.21
20027;BME280;10174;42.688;23.344;2023-09-08T04:00:08;95777.78;;;17.60;93.64
20027;BME280;10174;42.688;23.344;2023-09-08T04:02:36;95771.56;;;17.60;93.55
20027;BME280;10174;42.688;23.344;2023-09-08T04:05:01;95747.16;;;17.41;93.53
20027;BME280;10174;42.688;23.344;2023-09-08T04:07:26;95779.56;;;17.51;93.41
20027;BME280;10174;42.688;23.344;2023-09-08T04:09:52;95758.47;;;17.29;94.65
20027;BME280;10174;42.688;23.344;2023-09-08T04:12:17;95780.34;;;17.38;95.10
20027;BME280;10174;42.688;23.344;2023-09-08T04:14:42;95773.78;;;17.39;95.02
20027;BME280;10174;42.688;23.344;2023-09-08T04:17:08;95776.88;;;17.32;94.97
20027;BME280;10174;42.688;23.344;2023-09-08T04:19:33;95763.16;;;17.23;95.01
20027;BME280;10174;42.688;23.344;2023-09-08T04:21:59;95764.53;;;17.21;95.89
20027;BME280;10174;42.688;23.344;2023-09-08T04:24:24;95773.22;;;17.23;96.13
20027;BME280;10174;42.688;23.344;2023-09-08T04:26:49;95792.16;;;17.28;96.51
20027;BME280;10174;42.688;23.344;2023-09-08T04:29:15;95785.81;;;17.33;96.80
20027;BME280;10174;42.688;23.344;2023-09-08T04:31:40;95670.16;;;16.61;96.61
20027;BME280;10174;42.688;23.344;2023-09-08T04:34:06;95755.47;;;17.12;96.69
20027;BME280;10174;42.688;23.344;2023-09-08T04:36:50;95738.38;;;16.92;96.79
20027;BME280;10174;42.688;23.344;2023-09-08T04:39:15;95797.88;;;17.26;97.19
20027;BME280;10174;42.688;23.344;2023-09-08T04:41:40;95790.84;;;17.25;97.30
20027;BME280;10174;42.688;23.344;2023-09-08T04:44:06;95799.19;;;17.29;97.24
20027;BME280;10174;42.688;23.344;2023-09-08T04:46:31;95783.50;;;17.26;97.49
20027;BME280;10174;42.688;23.344;2023-09-08T04:48:57;95798.81;;;17.36;97.21
20027;BME280;10174;42.688;23.344;2023-09-08T04:51:22;95798.81;;;17.36;97.17
20027;BME280;10174;42.688;23.344;2023-09-08T04:53:47;95801.47;;;17.41;97.22
20027;BME280;10174;42.688;23.344;2023-09-08T04:56:13;95782.63;;;17.31;97.17
20027;BME280;10174;42.688;23.344;2023-09-08T04:58:39;95700.31;;;16.78;97.28
20027;BME280;10174;42.688;23.344;2023-09-08T05:01:04;95804.09;;;17.46;97.31
20027;BME280;10174;42.688;23.344;2023-09-08T05:03:30;95791.63;;;17.45;97.09
20027;BME280;10174;42.688;23.344;2023-09-08T05:05:56;95791.47;;;17.55;97.13
20027;BME280;10174;42.688;23.344;2023-09-08T05:08:21;95706.97;;;17.05;96.55
20027;BME280;10174;42.688;23.344;2023-09-08T05:10:47;95721.69;;;17.18;96.56
20027;BME280;10174;42.688;23.344;2023-09-08T05:13:12;95793.34;;;17.74;97.01
20027;BME280;10174;42.688;23.344;2023-09-08T05:15:37;95789.53;;;17.75;96.25
20027;BME280;10174;42.688;23.344;2023-09-08T05:18:04;95801.81;;;17.86;95.78
20027;BME280;10174;42.688;23.344;2023-09-08T05:20:30;95783.19;;;17.79;95.37
20027;BME280;10174;42.688;23.344;2023-09-08T05:22:55;95810.56;;;18.02;94.82
20027;BME280;10174;42.688;23.344;2023-09-08T05:25:21;95805.75;;;18.13;95.11
20027;BME280;10174;42.688;23.344;2023-09-08T05:27:46;95786.19;;;18.11;93.14
20027;BME280;10174;42.688;23.344;2023-09-08T05:30:12;95780.16;;;18.14;91.48
20027;BME280;10174;42.688;23.344;2023-09-08T05:32:38;95798.44;;;18.41;89.64
20027;BME280;10174;42.688;23.344;2023-09-08T05:35:03;95804.19;;;18.54;89.58
20027;BME280;10174;42.688;23.344;2023-09-08T05:37:29;95803.78;;;18.60;89.02
20027;BME280;10174;42.688;23.344;2023-09-08T05:39:54;95804.09;;;18.73;88.15
20027;BME280;10174;42.688;23.344;2023-09-08T05:42:19;95801.78;;;18.80;86.85
20027;BME280;10174;42.688;23.344;2023-09-08T05:44:45;95811.06;;;18.93;86.71
20027;BME280;10174;42.688;23.344;2023-09-08T05:47:11;95816.91;;;19.00;85.27
20027;BME280;10174;42.688;23.344;2023-09-08T05:49:36;95782.63;;;18.85;83.60
20027;BME280;10174;42.688;23.344;2023-09-08T05:52:02;95816.88;;;19.14;84.34
20027;BME280;10174;42.688;23.344;2023-09-08T05:54:27;95794.88;;;19.10;84.41
20027;BME280;10174;42.688;23.344;2023-09-08T05:56:54;95805.63;;;19.29;83.80
20027;BME280;10174;42.688;23.344;2023-09-08T05:59:19;95811.84;;;19.44;79.63
20027;BME280;10174;42.688;23.344;2023-09-08T06:01:44;95808.31;;;19.43;80.21
20027;BME280;10174;42.688;23.344;2023-09-08T06:04:10;95812.31;;;19.60;76.10
20027;BME280;10174;42.688;23.344;2023-09-08T06:06:35;95719.56;;;19.05;74.91
20027;BME280;10174;42.688;23.344;2023-09-08T06:09:01;95787.47;;;19.61;74.81
20027;BME280;10174;42.688;23.344;2023-09-08T06:11:26;95711.06;;;19.21;71.84
20027;BME280;10174;42.688;23.344;2023-09-08T06:13:52;95812.38;;;19.91;73.14
20027;BME280;10174;42.688;23.344;2023-09-08T06:16:21;95783.47;;;19.81;73.77
20027;BME280;10174;42.688;23.344;2023-09-08T06:18:46;95805.34;;;19.90;73.67
20027;BME280;10174;42.688;23.344;2023-09-08T06:21:11;95790.56;;;19.91;73.23
20027;BME280;10174;42.688;23.344;2023-09-08T06:23:37;95791.94;;;20.02;72.48
20027;BME280;10174;42.688;23.344;2023-09-08T06:26:02;95805.81;;;20.15;71.99
20027;BME280;10174;42.688;23.344;2023-09-08T06:28:28;95812.34;;;20.36;69.34
20027;BME280;10174;42.688;23.344;2023-09-08T06:30:53;95783.38;;;20.18;69.45
20027;BME280;10174;42.688;23.344;2023-09-08T06:33:19;95729.19;;;19.93;67.90
20027;BME280;10174;42.688;23.344;2023-09-08T06:35:45;95791.50;;;20.40;68.02
20027;BME280;10174;42.688;23.344;2023-09-08T06:38:11;95748.38;;;20.20;66.76
20027;BME280;10174;42.688;23.344;2023-09-08T06:40:36;95822.81;;;20.74;65.44
20027;BME280;10174;42.688;23.344;2023-09-08T06:43:02;95817.59;;;20.64;66.30
20027;BME280;10174;42.688;23.344;2023-09-08T06:45:27;95815.72;;;20.73;65.03
20027;BME280;10174;42.688;23.344;2023-09-08T06:47:52;95831.84;;;21.01;64.58
20027;BME280;10174;42.688;23.344;2023-09-08T06:50:23;95809.53;;;20.99;62.82
20027;BME280;10174;42.688;23.344;2023-09-08T06:52:49;95822.28;;;21.21;62.42
20027;BME280;10174;42.688;23.344;2023-09-08T06:55:16;95826.16;;;21.29;61.45
20027;BME280;10174;42.688;23.344;2023-09-08T06:57:42;95841.63;;;21.51;59.60
20027;BME280;10174;42.688;23.344;2023-09-08T07:00:08;95802.41;;;21.56;60.59
20027;BME280;10174;42.688;23.344;2023-09-08T07:02:37;95813.34;;;21.73;58.11
20027;BME280;10174;42.688;23.344;2023-09-08T07:05:02;95799.81;;;21.68;59.25
20027;BME280;10174;42.688;23.344;2023-09-08T07:07:33;95832.13;;;21.92;57.00
20027;BME280;10174;42.688;23.344;2023-09-08T07:09:59;95826.50;;;21.80;57.60
20027;BME280;10174;42.688;23.344;2023-09-08T07:12:24;95821.66;;;22.03;54.69
20027;BME280;10174;42.688;23.344;2023-09-08T07:14:49;95824.53;;;22.15;55.95
20027;BME280;10174;42.688;23.344;2023-09-08T07:17:15;95808.94;;;22.07;56.40
20027;BME280;10174;42.688;23.344;2023-09-08T07:19:40;95805.38;;;22.24;54.96
20027;BME280;10174;42.688;23.344;2023-09-08T07:22:05;95819.53;;;22.35;55.96
20027;BME280;10174;42.688;23.344;2023-09-08T07:24:31;95820.47;;;22.30;56.32
20027;BME280;10174;42.688;23.344;2023-09-08T07:26:57;95794.75;;;22.22;52.73
20027;BME280;10174;42.688;23.344;2023-09-08T07:29:22;95820.16;;;22.40;54.95
20027;BME280;10174;42.688;23.344;2023-09-08T07:31:47;95737.72;;;21.95;54.59
20027;BME280;10174;42.688;23.344;2023-09-08T07:34:13;95792.94;;;22.44;54.06
20027;BME280;10174;42.688;23.344;2023-09-08T07:36:38;95831.38;;;22.56;55.67
20027;BME280;10174;42.688;23.344;2023-09-08T07:39:04;95818.41;;;22.74;53.37
20027;BME280;10174;42.688;23.344;2023-09-08T07:41:29;95813.13;;;22.69;54.32
20027;BME280;10174;42.688;23.344;2023-09-08T07:43:55;95802.22;;;22.61;53.20
20027;BME280;10174;42.688;23.344;2023-09-08T07:46:20;95806.50;;;22.70;54.64
20027;BME280;10174;42.688;23.344;2023-09-08T07:48:45;95816.56;;;22.87;52.46
20027;BME280;10174;42.688;23.344;2023-09-08T07:51:11;95799.22;;;22.83;52.44
20027;BME280;10174;42.688;23.344;2023-09-08T07:53:36;95809.72;;;23.11;51.98
20027;BME280;10174;42.688;23.344;2023-09-08T07:56:01;95812.16;;;23.04;52.08
20027;BME280;10174;42.688;23.344;2023-09-08T07:58:27;95796.81;;;23.11;51.58
20027;BME280;10174;42.688;23.344;2023-09-08T08:00:52;95701.88;;;22.86;48.52
20027;BME280;10174;42.688;23.344;2023-09-08T08:03:17;95816.44;;;23.64;49.19
20027;BME280;10174;42.688;23.344;2023-09-08T08:05:43;95793.72;;;23.64;48.61
20027;BME280;10174;42.688;23.344;2023-09-08T08:08:08;95804.94;;;23.92;48.96
20027;BME280;10174;42.688;23.344;2023-09-08T08:10:34;95801.25;;;23.88;48.76
20027;BME280;10174;42.688;23.344;2023-09-08T08:13:00;95795.09;;;23.91;48.19
20027;BME280;10174;42.688;23.344;2023-09-08T08:15:40;95798.44;;;23.97;47.82
20027;BME280;10174;42.688;23.344;2023-09-08T08:18:06;95801.56;;;24.08;47.88
20027;BME280;10174;42.688;23.344;2023-09-08T08:20:32;95805.47;;;24.07;48.49
20027;BME280;10174;42.688;23.344;2023-09-08T08:23:02;95799.53;;;24.17;48.31
20027;BME280;10174;42.688;23.344;2023-09-08T08:25:27;95804.22;;;24.16;47.43
20027;BME280;10174;42.688;23.344;2023-09-08T08:27:53;95725.72;;;23.70;47.18
20027;BME280;10174;42.688;23.344;2023-09-08T08:30:19;95802.28;;;24.29;47.16
20027;BME280;10174;42.688;23.344;2023-09-08T08:32:44;95710.22;;;23.74;48.33
20027;BME280;10174;42.688;23.344;2023-09-08T08:35:11;95789.47;;;24.67;47.08
20027;BME280;10174;42.688;23.344;2023-09-08T08:37:42;95793.69;;;25.01;45.21
20027;BME280;10174;42.688;23.344;2023-09-08T08:40:09;95788.22;;;25.01;45.77
20027;BME280;10174;42.688;23.344;2023-09-08T08:42:36;95791.50;;;25.07;46.24
20027;BME280;10174;42.688;23.344;2023-09-08T08:45:02;95772.16;;;25.03;45.43
20027;BME280;10174;42.688;23.344;2023-09-08T08:47:28;95782.63;;;25.51;43.62
20027;BME280;10174;42.688;23.344;2023-09-08T08:49:56;95778.94;;;25.59;42.52
20027;BME280;10174;42.688;23.344;2023-09-08T08:52:24;95779.38;;;25.73;41.47
20027;BME280;10174;42.688;23.344;2023-09-08T08:54:50;95779.88;;;25.79;42.82
20027;BME280;10174;42.688;23.344;2023-09-08T08:57:15;95775.44;;;25.74;41.60
20027;BME280;10174;42.688;23.344;2023-09-08T08:59:41;95733.56;;;25.12;42.60
20027;BME280;10174;42.688;23.344;2023-09-08T09:02:07;95715.28;;;24.92;43.67
20027;BME280;10174;42.688;23.344;2023-09-08T09:04:36;95777.53;;;25.24;42.77
20027;BME280;10174;42.688;23.344;2023-09-08T09:07:02;95781.84;;;25.25;41.33
20027;BME280;10174;42.688;23.344;2023-09-08T09:09:28;95780.50;;;25.19;43.92
20027;BME280;10174;42.688;23.344;2023-09-08T09:11:53;95690.91;;;24.78;43.53
20027;BME280;10174;42.688;23.344;2023-09-08T09:14:19;95751.53;;;25.34;42.66
20027;BME280;10174;42.688;23.344;2023-09-08T09:16:45;95785.91;;;25.97;41.18
20027;BME280;10174;42.688;23.344;2023-09-08T09:19:20;95786.25;;;25.67;42.81
20027;BME280;10174;42.688;23.344;2023-09-08T09:21:51;95784.94;;;25.36;43.45
20027;BME280;10174;42.688;23.344;2023-09-08T09:24:39;95695.72;;;24.31;43.76
20027;BME280;10174;42.688;23.344;2023-09-08T09:27:11;95791.75;;;24.89;44.40
20027;BME280;10174;42.688;23.344;2023-09-08T09:29:47;95777.41;;;25.08;43.00
20027;BME280;10174;42.688;23.344;2023-09-08T09:32:12;95785.41;;;25.26;44.52
20027;BME280;10174;42.688;23.344;2023-09-08T09:34:58;95782.34;;;25.15;44.82
20027;BME280;10174;42.688;23.344;2023-09-08T09:37:26;95766.44;;;25.08;44.53
20027;BME280;10174;42.688;23.344;2023-09-08T09:39:53;95776.69;;;25.36;43.18
20027;BME280;10174;42.688;23.344;2023-09-08T09:42:19;95782.00;;;25.29;43.84
20027;BME280;10174;42.688;23.344;2023-09-08T09:44:47;95778.78;;;25.39;44.68
20027;BME280;10174;42.688;23.344;2023-09-08T09:47:13;95781.09;;;25.94;42.77
20027;BME280;10174;42.688;23.344;2023-09-08T09:49:46;95709.47;;;25.62;42.53
20027;BME280;10174;42.688;23.344;2023-09-08T09:52:12;95774.97;;;26.13;41.82
20027;BME280;10174;42.688;23.344;2023-09-08T09:54:41;95752.44;;;25.95;41.84
20027;BME280;10174;42.688;23.344;2023-09-08T09:57:06;95773.88;;;26.02;42.76
20027;BME280;10174;42.688;23.344;2023-09-08T09:59:32;95717.56;;;25.55;43.34
20027;BME280;10174;42.688;23.344;2023-09-08T10:01:59;95761.44;;;26.08;42.09
20027;BME280;10174;42.688;23.344;2023-09-08T10:04:24;95680.75;;;25.75;42.83
20027;BME280;10174;42.688;23.344;2023-09-08T10:06:51;95674.44;;;26.35;41.28
20027;BME280;10174;42.688;23.344;2023-09-08T10:09:17;95757.50;;;26.53;41.49
20027;BME280;10174;42.688;23.344;2023-09-08T10:11:48;95745.47;;;26.13;42.76
20027;BME280;10174;42.688;23.344;2023-09-08T10:14:15;95717.78;;;25.78;43.27
20027;BME280;10174;42.688;23.344;2023-09-08T10:16:43;95754.34;;;25.78;43.76
20027;BME280;10174;42.688;23.344;2023-09-08T10:19:09;95752.63;;;25.74;43.67
20027;BME280;10174;42.688;23.344;2023-09-08T10:21:48;95710.75;;;25.65;43.67
20027;BME280;10174;42.688;23.344;2023-09-08T10:24:20;95732.69;;;26.05;43.05
20027;BME280;10174;42.688;23.344;2023-09-08T10:27:04;95754.00;;;26.24;42.47
20027;BME280;10174;42.688;23.344;2023-09-08T10:29:31;95755.47;;;25.90;43.13
20027;BME280;10174;42.688;23.344;2023-09-08T10:31:58;95685.00;;;25.16;44.16
20027;BME280;10174;42.688;23.344;2023-09-08T10:34:25;95753.34;;;25.42;44.43
20027;BME280;10174;42.688;23.344;2023-09-08T10:36:52;95713.03;;;25.22;44.71
20027;BME280;10174;42.688;23.344;2023-09-08T10:39:37;95752.66;;;25.21;45.37
20027;BME280;10174;42.688;23.344;2023-09-08T10:47:19;95745.22;;;25.62;43.93
20027;BME280;10174;42.688;23.344;2023-09-08T10:49:47;95740.63;;;25.38;44.20
20027;BME280;10174;42.688;23.344;2023-09-08T10:52:13;95749.22;;;26.21;42.84
20027;BME280;10174;42.688;23.344;2023-09-08T10:54:42;95740.44;;;27.15;41.04
20027;BME280;10174;42.688;23.344;2023-09-08T10:57:13;95735.38;;;27.52;40.28
20027;BME280;10174;42.688;23.344;2023-09-08T10:59:39;95741.28;;;27.15;40.59
20027;BME280;10174;42.688;23.344;2023-09-08T11:02:05;95739.72;;;26.82;40.73
20027;BME280;10174;42.688;23.344;2023-09-08T11:04:31;95639.97;;;25.93;41.70
20027;BME280;10174;42.688;23.344;2023-09-08T11:06:57;95738.13;;;26.49;42.42
20027;BME280;10174;42.688;23.344;2023-09-08T11:09:22;95741.13;;;26.12;42.65
20027;BME280;10174;42.688;23.344;2023-09-08T11:11:49;95734.22;;;26.51;42.30
20027;BME280;10174;42.688;23.344;2023-09-08T11:14:14;95740.44;;;27.89;39.87
20027;BME280;10174;42.688;23.344;2023-09-08T11:16:40;95730.56;;;27.88;38.88
20027;BME280;10174;42.688;23.344;2023-09-08T11:19:05;95732.41;;;27.06;40.66
20027;BME280;10174;42.688;23.344;2023-09-08T11:21:31;95729.28;;;27.43;40.84
20027;BME280;10174;42.688;23.344;2023-09-08T11:24:03;95728.47;;;28.24;40.08
20027;BME280;10174;42.688;23.344;2023-09-08T11:26:33;95723.72;;;28.02;39.01
20027;BME280;10174;42.688;23.344;2023-09-08T11:28:59;95724.06;;;27.22;40.71
20027;BME280;10174;42.688;23.344;2023-09-08T11:31:25;95704.25;;;26.81;41.71
20027;BME280;10174;42.688;23.344;2023-09-08T11:33:54;95719.81;;;26.41;42.08
20027;BME280;10174;42.688;23.344;2023-09-08T11:36:20;95658.53;;;26.44;42.42
20027;BME280;10174;42.688;23.344;2023-09-08T11:38:45;95710.25;;;27.77;38.79
20027;BME280;10174;42.688;23.344;2023-09-08T11:41:11;95667.56;;;28.90;37.42
20027;BME280;10174;42.688;23.344;2023-09-08T11:43:37;95679.91;;;28.96;37.25
20027;BME280;10174;42.688;23.344;2023-09-08T11:46:02;95679.41;;;29.48;35.74
20027;BME280;10174;42.688;23.344;2023-09-08T11:48:28;95660.59;;;30.40;34.27
20027;BME280;10174;42.688;23.344;2023-09-08T11:50:54;95678.19;;;30.17;35.10
20027;BME280;10174;42.688;23.344;2023-09-08T11:53:20;95679.50;;;30.30;35.51
20027;BME280;10174;42.688;23.344;2023-09-08T11:55:47;95660.47;;;29.84;34.69
20027;BME280;10174;42.688;23.344;2023-09-08T11:58:13;95680.09;;;30.54;34.64
20027;BME280;10174;42.688;23.344;2023-09-08T12:00:39;95676.41;;;30.39;35.11
20027;BME280;10174;42.688;23.344;2023-09-08T12:03:13;95678.81;;;30.96;33.39
20027;BME280;10174;42.688;23.344;2023-09-08T12:05:40;95631.16;;;30.80;34.40
20027;BME280;10174;42.688;23.344;2023-09-08T12:08:06;95626.84;;;31.63;32.16
20027;BME280;10174;42.688;23.344;2023-09-08T12:10:38;95649.31;;;30.66;33.55
20027;BME280;10174;42.688;23.344;2023-09-08T12:13:04;95618.53;;;29.48;34.86
20027;BME280;10174;42.688;23.344;2023-09-08T12:18:00;95658.44;;;28.59;36.66
20027;BME280;10174;42.688;23.344;2023-09-08T12:20:26;95652.97;;;28.90;35.90
20027;BME280;10174;42.688;23.344;2023-09-08T12:22:51;95621.72;;;28.09;37.33
20027;BME280;10174;42.688;23.344;2023-09-08T12:25:17;95663.94;;;28.33;37.84
20027;BME280;10174;42.688;23.344;2023-09-08T12:27:45;95666.13;;;28.00;38.98
20027;BME280;10174;42.688;23.344;2023-09-08T12:30:16;95652.81;;;28.06;38.96
20027;BME280;10174;42.688;23.344;2023-09-08T12:32:42;95639.03;;;28.06;39.20
20027;BME280;10174;42.688;23.344;2023-09-08T12:35:08;95633.66;;;27.94;38.82
20027;BME280;10174;42.688;23.344;2023-09-08T12:37:33;95588.94;;;27.84;38.84
20027;BME280;10174;42.688;23.344;2023-09-08T12:39:59;95583.00;;;27.82;38.95
20027;BME280;10174;42.688;23.344;2023-09-08T12:42:26;95645.81;;;28.35;37.82
20027;BME280;10174;42.688;23.344;2023-09-08T12:44:54;95614.34;;;27.94;37.88
20027;BME280;10174;42.688;23.344;2023-09-08T12:47:20;95629.28;;;27.93;37.94
20027;BME280;10174;42.688;23.344;2023-09-08T12:49:45;95566.88;;;27.38;37.79
20027;BME280;10174;42.688;23.344;2023-09-08T12:52:11;95639.16;;;27.70;39.57
20027;BME280;10174;42.688;23.344;2023-09-08T12:54:36;95627.22;;;27.63;38.38
20027;BME280;10174;42.688;23.344;2023-09-08T12:57:02;95579.03;;;26.98;39.55